sensor_id;sensor_type;location;lat;lon;timestamp;P1;durP1;ratioP1;P2;durP2;ratioP2
2994;SDS011;35277;49.890;8.222;2024-03-02T00:01:43;1.00;;;0.40;;
2994;SDS011;35277;49.890;8.222;2024-03-02T00:04:11;1.20;;;0.80;;
2994;SDS011;35277;49.890;8.222;2024-03-02T00:06:39;1.00;;;0.40;;
2994;SDS011;35277;49.890;8.222;2024-03-02T00:09:07;1.00;;;0.40;;
2994;SDS011;35277;49.890;8.222;2024-03-02T00:11:38;2.60;;;1.60;;
2994;SDS011;35277;49.890;8.222;2024-03-02T00:14:06;3.23;;;1.50;;
2994;SDS011;35277;49.890;8.222;2024-03-02T00:16:36;0.90;;;0.40;;
2994;SDS011;35277;49.890;8.222;2024-03-02T00:19:04;1.10;;;0.60;;
2994;SDS011;35277;49.890;8.222;2024-03-02T00:21:33;1.00;;;0.40;;
2994;SDS011;35277;49.890;8.222;2024-03-02T00:24:02;1.60;;;1.00;;
2994;SDS011;35277;49.890;8.222;2024-03-02T00:26:43;1.00;;;0.40;;
2994;SDS011;35277;49.890;8.222;2024-03-02T00:29:11;1.40;;;1.07;;
2994;SDS011;35277;49.890;8.222;2024-03-02T00:31:44;2.23;;;0.73;;
2994;SDS011;35277;49.890;8.222;2024-03-02T00:34:12;1.00;;;0.53;;
2994;SDS011;35277;49.890;8.222;2024-03-02T00:36:42;1.00;;;0.60;;
2994;SDS011;35277;49.890;8.222;2024-03-02T00:39:11;0.93;;;0.40;;
2994;SDS011;35277;49.890;8.222;2024-03-02T00:41:40;1.00;;;0.60;;
2994;SDS011;35277;49.890;8.222;2024-03-02T00:44:10;1.00;;;0.50;;
2994;SDS011;35277;49.890;8.222;2024-03-02T00:46:40;1.20;;;0.60;;
2994;SDS011;35277;49.890;8.222;2024-03-02T00:49:16;1.10;;;0.80;;
2994;SDS011;35277;49.890;8.222;2024-03-02T00:51:47;1.17;;;0.80;;
2994;SDS011;35277;49.890;8.222;2024-03-02T00:54:19;0.97;;;0.40;;
2994;SDS011;35277;49.890;8.222;2024-03-02T00:56:47;1.00;;;0.40;;
2994;SDS011;35277;49.890;8.222;2024-03-02T00:59:16;1.30;;;0.90;;
2994;SDS011;35277;49.890;8.222;2024-03-02T01:01:44;0.93;;;0.40;;
2994;SDS011;35277;49.890;8.222;2024-03-02T01:04:13;3.30;;;2.27;;
2994;SDS011;35277;49.890;8.222;2024-03-02T01:06:41;1.00;;;0.40;;
2994;SDS011;35277;49.890;8.222;2024-03-02T01:09:09;1.00;;;0.60;;
2994;SDS011;35277;49.890;8.222;2024-03-02T01:11:38;0.97;;;0.47;;
2994;SDS011;35277;49.890;8.222;2024-03-02T01:14:06;1.10;;;0.60;;
2994;SDS011;35277;49.890;8.222;2024-03-02T01:16:34;1.10;;;0.80;;
2994;SDS011;35277;49.890;8.222;2024-03-02T01:19:02;1.00;;;0.40;;
2994;SDS011;35277;49.890;8.222;2024-03-02T01:21:32;0.93;;;0.40;;
2994;SDS011;35277;49.890;8.222;2024-03-02T01:23:59;1.00;;;0.40;;
2994;SDS011;35277;49.890;8.222;2024-03-02T01:26:28;1.00;;;0.40;;
2994;SDS011;35277;49.890;8.222;2024-03-02T01:28:57;1.00;;;0.50;;
2994;SDS011;35277;49.890;8.222;2024-03-02T01:31:24;2.70;;;0.90;;
2994;SDS011;35277;49.890;8.222;2024-03-02T01:33:52;1.20;;;0.63;;
2994;SDS011;35277;49.890;8.222;2024-03-02T01:36:20;1.03;;;0.50;;
2994;SDS011;35277;49.890;8.222;2024-03-02T01:38:49;1.30;;;1.07;;
2994;SDS011;35277;49.890;8.222;2024-03-02T01:41:17;1.23;;;1.03;;
2994;SDS011;35277;49.890;8.222;2024-03-02T01:43:45;1.00;;;0.50;;
2994;SDS011;35277;49.890;8.222;2024-03-02T01:46:13;1.20;;;0.80;;
2994;SDS011;35277;49.890;8.222;2024-03-02T01:48:41;1.30;;;0.90;;
2994;SDS011;35277;49.890;8.222;2024-03-02T01:51:08;1.00;;;0.40;;
2994;SDS011;35277;49.890;8.222;2024-03-02T01:53:37;1.00;;;0.40;;
2994;SDS011;35277;49.890;8.222;2024-03-02T01:56:06;1.00;;;0.40;;
2994;SDS011;35277;49.890;8.222;2024-03-02T01:58:34;0.97;;;0.50;;
2994;SDS011;35277;49.890;8.222;2024-03-02T02:01:02;1.00;;;0.53;;
2994;SDS011;35277;49.890;8.222;2024-03-02T02:03:30;1.03;;;0.53;;
2994;SDS011;35277;49.890;8.222;2024-03-02T02:05:58;1.37;;;1.27;;
2994;SDS011;35277;49.890;8.222;2024-03-02T02:08:26;1.10;;;0.80;;
2994;SDS011;35277;49.890;8.222;2024-03-02T02:10:54;1.00;;;0.47;;
2994;SDS011;35277;49.890;8.222;2024-03-02T02:13:23;1.00;;;0.60;;
2994;SDS011;35277;49.890;8.222;2024-03-02T02:15:51;1.00;;;0.50;;
2994;SDS011;35277;49.890;8.222;2024-03-02T02:18:19;2.50;;;1.93;;
2994;SDS011;35277;49.890;8.222;2024-03-02T02:20:47;4.10;;;2.17;;
2994;SDS011;35277;49.890;8.222;2024-03-02T02:23:16;1.90;;;1.80;;
2994;SDS011;35277;49.890;8.222;2024-03-02T02:25:44;1.00;;;0.50;;
2994;SDS011;35277;49.890;8.222;2024-03-02T02:28:12;1.00;;;0.40;;
2994;SDS011;35277;49.890;8.222;2024-03-02T02:30:40;1.00;;;0.40;;
2994;SDS011;35277;49.890;8.222;2024-03-02T02:33:08;1.10;;;0.70;;
2994;SDS011;35277;49.890;8.222;2024-03-02T02:35:36;1.00;;;0.50;;
2994;SDS011;35277;49.890;8.222;2024-03-02T02:38:04;1.10;;;0.90;;
2994;SDS011;35277;49.890;8.222;2024-03-02T02:40:34;1.00;;;0.40;;
2994;SDS011;35277;49.890;8.222;2024-03-02T02:43:02;1.00;;;0.40;;
2994;SDS011;35277;49.890;8.222;2024-03-02T02:45:30;1.10;;;0.70;;
2994;SDS011;35277;49.890;8.222;2024-03-02T02:47:57;1.20;;;0.93;;
2994;SDS011;35277;49.890;8.222;2024-03-02T02:50:27;1.37;;;0.70;;
2994;SDS011;35277;49.890;8.222;2024-03-02T02:52:55;3.17;;;1.50;;
2994;SDS011;35277;49.890;8.222;2024-03-02T02:55:23;1.00;;;0.60;;
2994;SDS011;35277;49.890;8.222;2024-03-02T02:57:52;0.97;;;0.40;;
2994;SDS011;35277;49.890;8.222;2024-03-02T03:00:20;1.87;;;1.70;;
2994;SDS011;35277;49.890;8.222;2024-03-02T03:02:49;1.00;;;0.50;;
2994;SDS011;35277;49.890;8.222;2024-03-02T03:05:17;1.37;;;0.60;;
2994;SDS011;35277;49.890;8.222;2024-03-02T03:07:45;1.00;;;0.60;;
2994;SDS011;35277;49.890;8.222;2024-03-02T03:10:16;2.00;;;1.70;;
2994;SDS011;35277;49.890;8.222;2024-03-02T03:12:44;0.97;;;0.40;;
2994;SDS011;35277;49.890;8.222;2024-03-02T03:15:14;1.00;;;0.50;;
2994;SDS011;35277;49.890;8.222;2024-03-02T03:17:42;0.90;;;0.40;;
2994;SDS011;35277;49.890;8.222;2024-03-02T03:20:12;1.00;;;0.50;;
2994;SDS011;35277;49.890;8.222;2024-03-02T03:22:42;2.20;;;2.00;;
2994;SDS011;35277;49.890;8.222;2024-03-02T03:25:10;1.00;;;0.50;;
2994;SDS011;35277;49.890;8.222;2024-03-02T03:27:38;0.93;;;0.40;;
2994;SDS011;35277;49.890;8.222;2024-03-02T03:30:08;1.00;;;0.40;;
2994;SDS011;35277;49.890;8.222;2024-03-02T03:32:37;1.00;;;0.60;;
2994;SDS011;35277;49.890;8.222;2024-03-02T03:35:05;1.30;;;0.93;;
2994;SDS011;35277;49.890;8.222;2024-03-02T03:37:35;1.30;;;0.97;;
2994;SDS011;35277;49.890;8.222;2024-03-02T03:40:03;1.00;;;0.50;;
2994;SDS011;35277;49.890;8.222;2024-03-02T03:42:37;1.43;;;0.50;;
2994;SDS011;35277;49.890;8.222;2024-03-02T03:45:06;1.20;;;0.70;;
2994;SDS011;35277;49.890;8.222;2024-03-02T03:47:35;1.10;;;0.50;;
2994;SDS011;35277;49.890;8.222;2024-03-02T03:50:04;1.00;;;0.50;;
2994;SDS011;35277;49.890;8.222;2024-03-02T03:52:33;1.10;;;0.83;;
2994;SDS011;35277;49.890;8.222;2024-03-02T03:55:02;2.13;;;0.70;;
2994;SDS011;35277;49.890;8.222;2024-03-02T03:57:31;0.97;;;0.40;;
2994;SDS011;35277;49.890;8.222;2024-03-02T03:59:59;1.00;;;0.50;;
2994;SDS011;35277;49.890;8.222;2024-03-02T04:02:37;1.00;;;0.60;;
2994;SDS011;35277;49.890;8.222;2024-03-02T04:05:07;1.07;;;0.47;;
2994;SDS011;35277;49.890;8.222;2024-03-02T04:07:37;1.30;;;0.80;;
2994;SDS011;35277;49.890;8.222;2024-03-02T04:10:07;1.00;;;0.60;;
2994;SDS011;35277;49.890;8.222;2024-03-02T04:12:36;1.00;;;0.47;;
2994;SDS011;35277;49.890;8.222;2024-03-02T04:15:04;1.10;;;0.73;;
2994;SDS011;35277;49.890;8.222;2024-03-02T04:17:33;1.00;;;0.40;;
2994;SDS011;35277;49.890;8.222;2024-03-02T04:20:02;1.20;;;0.70;;
2994;SDS011;35277;49.890;8.222;2024-03-02T04:22:33;1.00;;;0.40;;
2994;SDS011;35277;49.890;8.222;2024-03-02T04:25:02;1.20;;;0.90;;
2994;SDS011;35277;49.890;8.222;2024-03-02T04:27:31;1.30;;;1.00;;
2994;SDS011;35277;49.890;8.222;2024-03-02T04:30:00;1.10;;;0.63;;
2994;SDS011;35277;49.890;8.222;2024-03-02T04:32:27;5.90;;;0.77;;
2994;SDS011;35277;49.890;8.222;2024-03-02T04:34:55;1.20;;;0.73;;
2994;SDS011;35277;49.890;8.222;2024-03-02T04:37:23;1.00;;;0.40;;
2994;SDS011;35277;49.890;8.222;2024-03-02T04:39:52;1.57;;;0.87;;
2994;SDS011;35277;49.890;8.222;2024-03-02T04:42:20;1.10;;;0.77;;
2994;SDS011;35277;49.890;8.222;2024-03-02T04:44:48;1.10;;;0.90;;
2994;SDS011;35277;49.890;8.222;2024-03-02T04:47:16;1.00;;;0.60;;
2994;SDS011;35277;49.890;8.222;2024-03-02T04:49:44;1.00;;;0.53;;
2994;SDS011;35277;49.890;8.222;2024-03-02T04:52:12;1.07;;;0.63;;
2994;SDS011;35277;49.890;8.222;2024-03-02T04:54:40;1.10;;;0.80;;
2994;SDS011;35277;49.890;8.222;2024-03-02T04:57:23;1.67;;;1.57;;
2994;SDS011;35277;49.890;8.222;2024-03-02T04:59:51;1.00;;;0.60;;
2994;SDS011;35277;49.890;8.222;2024-03-02T05:02:19;1.40;;;0.77;;
2994;SDS011;35277;49.890;8.222;2024-03-02T05:04:46;1.10;;;0.70;;
2994;SDS011;35277;49.890;8.222;2024-03-02T05:07:15;1.00;;;0.60;;
2994;SDS011;35277;49.890;8.222;2024-03-02T05:09:42;1.00;;;0.40;;
2994;SDS011;35277;49.890;8.222;2024-03-02T05:12:10;1.50;;;1.27;;
2994;SDS011;35277;49.890;8.222;2024-03-02T05:15:14;1.10;;;0.80;;
2994;SDS011;35277;49.890;8.222;2024-03-02T05:17:42;1.00;;;0.60;;
2994;SDS011;35277;49.890;8.222;2024-03-02T05:20:10;1.30;;;0.90;;
2994;SDS011;35277;49.890;8.222;2024-03-02T05:22:38;1.00;;;0.50;;
2994;SDS011;35277;49.890;8.222;2024-03-02T05:25:07;3.00;;;1.80;;
2994;SDS011;35277;49.890;8.222;2024-03-02T05:27:35;1.00;;;0.50;;
2994;SDS011;35277;49.890;8.222;2024-03-02T05:30:04;1.13;;;0.87;;
2994;SDS011;35277;49.890;8.222;2024-03-02T05:32:34;2.17;;;0.83;;
2994;SDS011;35277;49.890;8.222;2024-03-02T05:35:02;1.20;;;1.03;;
2994;SDS011;35277;49.890;8.222;2024-03-02T05:37:31;1.07;;;0.57;;
2994;SDS011;35277;49.890;8.222;2024-03-02T05:39:59;1.00;;;0.50;;
2994;SDS011;35277;49.890;8.222;2024-03-02T05:42:27;1.10;;;0.60;;
2994;SDS011;35277;49.890;8.222;2024-03-02T05:44:55;1.40;;;0.80;;
2994;SDS011;35277;49.890;8.222;2024-03-02T05:47:22;1.00;;;0.50;;
2994;SDS011;35277;49.890;8.222;2024-03-02T05:49:52;1.00;;;0.50;;
2994;SDS011;35277;49.890;8.222;2024-03-02T05:52:19;1.00;;;0.60;;
2994;SDS011;35277;49.890;8.222;2024-03-02T05:54:47;2.50;;;0.73;;
2994;SDS011;35277;49.890;8.222;2024-03-02T05:57:15;1.00;;;0.60;;
2994;SDS011;35277;49.890;8.222;2024-03-02T05:59:58;1.00;;;0.50;;
2994;SDS011;35277;49.890;8.222;2024-03-02T06:02:26;0.90;;;0.40;;
2994;SDS011;35277;49.890;8.222;2024-03-02T06:04:55;1.10;;;0.80;;
2994;SDS011;35277;49.890;8.222;2024-03-02T06:07:23;1.10;;;0.70;;
2994;SDS011;35277;49.890;8.222;2024-03-02T06:09:51;1.73;;;0.70;;
2994;SDS011;35277;49.890;8.222;2024-03-02T06:12:19;1.00;;;0.60;;
2994;SDS011;35277;49.890;8.222;2024-03-02T06:14:47;1.50;;;1.33;;
2994;SDS011;35277;49.890;8.222;2024-03-02T06:17:14;1.03;;;0.60;;
2994;SDS011;35277;49.890;8.222;2024-03-02T06:19:42;1.00;;;0.40;;
2994;SDS011;35277;49.890;8.222;2024-03-02T06:22:11;1.00;;;0.50;;
2994;SDS011;35277;49.890;8.222;2024-03-02T06:24:39;1.00;;;0.50;;
2994;SDS011;35277;49.890;8.222;2024-03-02T06:27:07;1.00;;;0.40;;
2994;SDS011;35277;49.890;8.222;2024-03-02T06:29:35;1.10;;;0.83;;
2994;SDS011;35277;49.890;8.222;2024-03-02T06:32:03;1.17;;;0.70;;
2994;SDS011;35277;49.890;8.222;2024-03-02T06:34:31;1.00;;;0.53;;
2994;SDS011;35277;49.890;8.222;2024-03-02T06:36:59;1.00;;;0.50;;
2994;SDS011;35277;49.890;8.222;2024-03-02T06:39:28;1.20;;;0.90;;
2994;SDS011;35277;49.890;8.222;2024-03-02T06:41:57;1.00;;;0.50;;
2994;SDS011;35277;49.890;8.222;2024-03-02T06:44:25;1.00;;;0.70;;
2994;SDS011;35277;49.890;8.222;2024-03-02T06:46:53;4.20;;;0.80;;
2994;SDS011;35277;49.890;8.222;2024-03-02T06:49:21;0.93;;;0.40;;
2994;SDS011;35277;49.890;8.222;2024-03-02T06:51:49;1.00;;;0.60;;
2994;SDS011;35277;49.890;8.222;2024-03-02T06:54:17;2.53;;;2.10;;
2994;SDS011;35277;49.890;8.222;2024-03-02T06:56:46;1.00;;;0.50;;
2994;SDS011;35277;49.890;8.222;2024-03-02T06:59:14;1.30;;;0.70;;
2994;SDS011;35277;49.890;8.222;2024-03-02T07:01:41;0.90;;;0.40;;
2994;SDS011;35277;49.890;8.222;2024-03-02T07:04:09;1.10;;;0.50;;
2994;SDS011;35277;49.890;8.222;2024-03-02T07:06:37;1.30;;;0.90;;
2994;SDS011;35277;49.890;8.222;2024-03-02T07:09:05;1.00;;;0.40;;
2994;SDS011;35277;49.890;8.222;2024-03-02T07:11:37;1.00;;;0.40;;
2994;SDS011;35277;49.890;8.222;2024-03-02T07:14:06;1.10;;;0.60;;
2994;SDS011;35277;49.890;8.222;2024-03-02T07:16:34;1.00;;;0.50;;
2994;SDS011;35277;49.890;8.222;2024-03-02T07:19:04;1.00;;;0.50;;
2994;SDS011;35277;49.890;8.222;2024-03-02T07:21:32;5.33;;;0.83;;
2994;SDS011;35277;49.890;8.222;2024-03-02T07:24:00;1.50;;;1.33;;
2994;SDS011;35277;49.890;8.222;2024-03-02T07:26:29;4.83;;;1.37;;
2994;SDS011;35277;49.890;8.222;2024-03-02T07:29:00;10.50;;;0.93;;
2994;SDS011;35277;49.890;8.222;2024-03-02T07:31:29;1.00;;;0.60;;
2994;SDS011;35277;49.890;8.222;2024-03-02T07:33:57;1.33;;;1.00;;
2994;SDS011;35277;49.890;8.222;2024-03-02T07:36:25;1.10;;;0.70;;
2994;SDS011;35277;49.890;8.222;2024-03-02T07:38:53;2.90;;;1.83;;
2994;SDS011;35277;49.890;8.222;2024-03-02T07:41:21;0.97;;;0.50;;
2994;SDS011;35277;49.890;8.222;2024-03-02T07:43:49;1.20;;;0.60;;
2994;SDS011;35277;49.890;8.222;2024-03-02T07:46:16;1.30;;;0.90;;
2994;SDS011;35277;49.890;8.222;2024-03-02T07:48:46;1.00;;;0.63;;
2994;SDS011;35277;49.890;8.222;2024-03-02T07:51:14;1.00;;;0.50;;
2994;SDS011;35277;49.890;8.222;2024-03-02T07:53:42;1.93;;;1.27;;
2994;SDS011;35277;49.890;8.222;2024-03-02T07:56:12;0.90;;;0.40;;
2994;SDS011;35277;49.890;8.222;2024-03-02T07:58:40;1.40;;;0.53;;
2994;SDS011;35277;49.890;8.222;2024-03-02T08:01:08;1.10;;;0.67;;
2994;SDS011;35277;49.890;8.222;2024-03-02T08:03:36;1.00;;;0.40;;
2994;SDS011;35277;49.890;8.222;2024-03-02T08:06:06;1.00;;;0.50;;
2994;SDS011;35277;49.890;8.222;2024-03-02T08:08:34;1.10;;;0.60;;
2994;SDS011;35277;49.890;8.222;2024-03-02T08:11:02;1.00;;;0.60;;
2994;SDS011;35277;49.890;8.222;2024-03-02T08:13:30;1.00;;;0.50;;
2994;SDS011;35277;49.890;8.222;2024-03-02T08:15:57;1.00;;;0.57;;
2994;SDS011;35277;49.890;8.222;2024-03-02T08:18:26;1.50;;;0.80;;
2994;SDS011;35277;49.890;8.222;2024-03-02T08:20:54;1.00;;;0.50;;
2994;SDS011;35277;49.890;8.222;2024-03-02T08:23:23;1.00;;;0.50;;
2994;SDS011;35277;49.890;8.222;2024-03-02T08:25:51;1.10;;;0.80;;
2994;SDS011;35277;49.890;8.222;2024-03-02T08:28:19;4.40;;;1.13;;
2994;SDS011;35277;49.890;8.222;2024-03-02T08:30:47;1.00;;;0.50;;
2994;SDS011;35277;49.890;8.222;2024-03-02T08:33:15;1.00;;;0.50;;
2994;SDS011;35277;49.890;8.222;2024-03-02T08:35:43;1.30;;;0.90;;
2994;SDS011;35277;49.890;8.222;2024-03-02T08:38:11;1.10;;;0.70;;
2994;SDS011;35277;49.890;8.222;2024-03-02T08:40:40;1.00;;;0.50;;
2994;SDS011;35277;49.890;8.222;2024-03-02T08:43:08;1.00;;;0.50;;
2994;SDS011;35277;49.890;8.222;2024-03-02T08:45:36;1.00;;;0.50;;
2994;SDS011;35277;49.890;8.222;2024-03-02T08:48:06;1.07;;;0.70;;
2994;SDS011;35277;49.890;8.222;2024-03-02T08:50:35;1.13;;;0.80;;
2994;SDS011;35277;49.890;8.222;2024-03-02T08:53:04;1.10;;;0.70;;
2994;SDS011;35277;49.890;8.222;2024-03-02T08:55:32;1.30;;;0.70;;
2994;SDS011;35277;49.890;8.222;2024-03-02T08:58:01;1.00;;;0.77;;
2994;SDS011;35277;49.890;8.222;2024-03-02T09:00:29;1.33;;;0.63;;
2994;SDS011;35277;49.890;8.222;2024-03-02T09:02:57;1.10;;;0.80;;
2994;SDS011;35277;49.890;8.222;2024-03-02T09:05:25;1.53;;;1.43;;
2994;SDS011;35277;49.890;8.222;2024-03-02T09:07:53;1.00;;;0.60;;
2994;SDS011;35277;49.890;8.222;2024-03-02T09:10:21;1.00;;;0.50;;
2994;SDS011;35277;49.890;8.222;2024-03-02T09:12:53;1.00;;;0.47;;
2994;SDS011;35277;49.890;8.222;2024-03-02T09:15:23;1.10;;;0.63;;
2994;SDS011;35277;49.890;8.222;2024-03-02T09:17:51;1.00;;;0.50;;
2994;SDS011;35277;49.890;8.222;2024-03-02T09:20:19;1.30;;;0.70;;
2994;SDS011;35277;49.890;8.222;2024-03-02T09:22:46;1.30;;;1.03;;
2994;SDS011;35277;49.890;8.222;2024-03-02T09:25:15;1.00;;;0.50;;
2994;SDS011;35277;49.890;8.222;2024-03-02T09:27:42;1.00;;;0.50;;
2994;SDS011;35277;49.890;8.222;2024-03-02T09:30:11;1.00;;;0.50;;
2994;SDS011;35277;49.890;8.222;2024-03-02T09:32:41;2.27;;;0.90;;
2994;SDS011;35277;49.890;8.222;2024-03-02T09:35:10;1.00;;;0.50;;
2994;SDS011;35277;49.890;8.222;2024-03-02T09:37:38;1.40;;;0.97;;
2994;SDS011;35277;49.890;8.222;2024-03-02T09:40:06;1.00;;;0.50;;
2994;SDS011;35277;49.890;8.222;2024-03-02T09:42:34;1.00;;;0.50;;
2994;SDS011;35277;49.890;8.222;2024-03-02T09:45:04;1.10;;;0.50;;
2994;SDS011;35277;49.890;8.222;2024-03-02T09:47:32;1.10;;;0.70;;
2994;SDS011;35277;49.890;8.222;2024-03-02T09:50:01;1.00;;;0.50;;
2994;SDS011;35277;49.890;8.222;2024-03-02T09:52:30;1.00;;;0.60;;
2994;SDS011;35277;49.890;8.222;2024-03-02T09:54:58;1.53;;;1.43;;
2994;SDS011;35277;49.890;8.222;2024-03-02T09:57:26;2.60;;;1.43;;
2994;SDS011;35277;49.890;8.222;2024-03-02T09:59:54;1.17;;;0.67;;
2994;SDS011;35277;49.890;8.222;2024-03-02T10:02:21;1.37;;;0.87;;
2994;SDS011;35277;49.890;8.222;2024-03-02T10:04:49;2.23;;;1.50;;
2994;SDS011;35277;49.890;8.222;2024-03-02T10:07:19;1.00;;;0.50;;
2994;SDS011;35277;49.890;8.222;2024-03-02T10:09:47;1.00;;;0.40;;
2994;SDS011;35277;49.890;8.222;2024-03-02T10:12:16;0.97;;;0.40;;
2994;SDS011;35277;49.890;8.222;2024-03-02T10:14:45;1.10;;;0.70;;
2994;SDS011;35277;49.890;8.222;2024-03-02T10:17:17;2.93;;;2.00;;
2994;SDS011;35277;49.890;8.222;2024-03-02T10:19:45;1.00;;;0.60;;
2994;SDS011;35277;49.890;8.222;2024-03-02T10:22:13;1.63;;;0.70;;
2994;SDS011;35277;49.890;8.222;2024-03-02T10:24:43;1.00;;;0.50;;
2994;SDS011;35277;49.890;8.222;2024-03-02T10:27:14;1.00;;;0.40;;
2994;SDS011;35277;49.890;8.222;2024-03-02T10:29:45;1.00;;;0.60;;
2994;SDS011;35277;49.890;8.222;2024-03-02T10:32:14;0.90;;;0.50;;
2994;SDS011;35277;49.890;8.222;2024-03-02T10:34:44;0.97;;;0.40;;
2994;SDS011;35277;49.890;8.222;2024-03-02T10:37:13;1.00;;;0.70;;
2994;SDS011;35277;49.890;8.222;2024-03-02T10:39:45;1.00;;;0.60;;
2994;SDS011;35277;49.890;8.222;2024-03-02T10:42:14;1.00;;;0.50;;
2994;SDS011;35277;49.890;8.222;2024-03-02T10:44:42;1.20;;;0.50;;
2994;SDS011;35277;49.890;8.222;2024-03-02T10:47:10;2.50;;;0.70;;
2994;SDS011;35277;49.890;8.222;2024-03-02T10:49:41;0.90;;;0.40;;
2994;SDS011;35277;49.890;8.222;2024-03-02T10:52:10;1.00;;;0.50;;
2994;SDS011;35277;49.890;8.222;2024-03-02T10:54:38;1.00;;;0.50;;
2994;SDS011;35277;49.890;8.222;2024-03-02T10:57:08;5.80;;;1.07;;
2994;SDS011;35277;49.890;8.222;2024-03-02T10:59:41;1.00;;;0.60;;
2994;SDS011;35277;49.890;8.222;2024-03-02T11:02:19;0.97;;;0.40;;
2994;SDS011;35277;49.890;8.222;2024-03-02T11:04:49;1.00;;;0.50;;
2994;SDS011;35277;49.890;8.222;2024-03-02T11:07:21;1.00;;;0.50;;
2994;SDS011;35277;49.890;8.222;2024-03-02T11:09:53;1.00;;;0.50;;
2994;SDS011;35277;49.890;8.222;2024-03-02T11:12:38;2.50;;;2.23;;
2994;SDS011;35277;49.890;8.222;2024-03-02T11:15:11;1.10;;;0.60;;
2994;SDS011;35277;49.890;8.222;2024-03-02T11:17:45;1.77;;;0.70;;
2994;SDS011;35277;49.890;8.222;2024-03-02T11:20:13;0.97;;;0.40;;
2994;SDS011;35277;49.890;8.222;2024-03-02T11:22:45;1.00;;;0.50;;
2994;SDS011;35277;49.890;8.222;2024-03-02T11:25:22;2.87;;;1.50;;
2994;SDS011;35277;49.890;8.222;2024-03-02T11:28:02;1.00;;;0.40;;
2994;SDS011;35277;49.890;8.222;2024-03-02T11:30:49;1.10;;;0.80;;
2994;SDS011;35277;49.890;8.222;2024-03-02T11:33:26;0.90;;;0.40;;
2994;SDS011;35277;49.890;8.222;2024-03-02T11:35:57;1.10;;;0.70;;
2994;SDS011;35277;49.890;8.222;2024-03-02T11:38:32;1.00;;;0.50;;
2994;SDS011;35277;49.890;8.222;2024-03-02T11:41:01;1.63;;;1.10;;
2994;SDS011;35277;49.890;8.222;2024-03-02T11:43:31;1.00;;;0.60;;
2994;SDS011;35277;49.890;8.222;2024-03-02T11:46:00;0.97;;;0.40;;
2994;SDS011;35277;49.890;8.222;2024-03-02T11:48:30;3.33;;;0.70;;
2994;SDS011;35277;49.890;8.222;2024-03-02T11:50:59;0.90;;;0.40;;
2994;SDS011;35277;49.890;8.222;2024-03-02T11:53:27;1.00;;;0.60;;
2994;SDS011;35277;49.890;8.222;2024-03-02T11:56:01;1.00;;;0.40;;
2994;SDS011;35277;49.890;8.222;2024-03-02T11:58:29;1.00;;;0.50;;
2994;SDS011;35277;49.890;8.222;2024-03-02T12:01:00;1.00;;;0.60;;
2994;SDS011;35277;49.890;8.222;2024-03-02T12:03:28;1.00;;;0.60;;
2994;SDS011;35277;49.890;8.222;2024-03-02T12:05:56;1.00;;;0.50;;
2994;SDS011;35277;49.890;8.222;2024-03-02T12:08:24;1.10;;;0.60;;
2994;SDS011;35277;49.890;8.222;2024-03-02T12:10:55;1.00;;;0.60;;
2994;SDS011;35277;49.890;8.222;2024-03-02T12:13:24;1.10;;;0.67;;
2994;SDS011;35277;49.890;8.222;2024-03-02T12:15:54;1.00;;;0.50;;
2994;SDS011;35277;49.890;8.222;2024-03-02T12:18:23;1.00;;;0.40;;
2994;SDS011;35277;49.890;8.222;2024-03-02T12:20:51;1.10;;;0.67;;
2994;SDS011;35277;49.890;8.222;2024-03-02T12:23:23;1.10;;;0.50;;
2994;SDS011;35277;49.890;8.222;2024-03-02T12:25:51;1.00;;;0.50;;
2994;SDS011;35277;49.890;8.222;2024-03-02T12:28:19;1.00;;;0.60;;
2994;SDS011;35277;49.890;8.222;2024-03-02T12:30:47;0.90;;;0.43;;
2994;SDS011;35277;49.890;8.222;2024-03-02T12:33:18;1.00;;;0.60;;
2994;SDS011;35277;49.890;8.222;2024-03-02T12:35:48;1.00;;;0.57;;
2994;SDS011;35277;49.890;8.222;2024-03-02T12:38:16;1.63;;;1.50;;
2994;SDS011;35277;49.890;8.222;2024-03-02T12:40:47;1.30;;;0.63;;
2994;SDS011;35277;49.890;8.222;2024-03-02T12:43:15;25.13;;;6.23;;
2994;SDS011;35277;49.890;8.222;2024-03-02T12:45:43;2.90;;;2.70;;
2994;SDS011;35277;49.890;8.222;2024-03-02T12:48:11;11.87;;;8.03;;
2994;SDS011;35277;49.890;8.222;2024-03-02T12:50:42;12.00;;;8.97;;
2994;SDS011;35277;49.890;8.222;2024-03-02T12:53:13;9.40;;;7.70;;
2994;SDS011;35277;49.890;8.222;2024-03-02T12:55:42;12.83;;;7.80;;
2994;SDS011;35277;49.890;8.222;2024-03-02T12:58:16;13.83;;;12.43;;
2994;SDS011;35277;49.890;8.222;2024-03-02T13:00:44;7.80;;;6.23;;
2994;SDS011;35277;49.890;8.222;2024-03-02T13:03:12;5.43;;;5.07;;
2994;SDS011;35277;49.890;8.222;2024-03-02T13:05:43;10.53;;;4.93;;
2994;SDS011;35277;49.890;8.222;2024-03-02T13:08:16;6.97;;;4.40;;
2994;SDS011;35277;49.890;8.222;2024-03-02T13:10:44;2.17;;;1.97;;
2994;SDS011;35277;49.890;8.222;2024-03-02T13:13:12;7.60;;;5.00;;
2994;SDS011;35277;49.890;8.222;2024-03-02T13:15:41;3.80;;;3.50;;
2994;SDS011;35277;49.890;8.222;2024-03-02T13:18:09;3.77;;;3.47;;
2994;SDS011;35277;49.890;8.222;2024-03-02T13:20:38;2.13;;;2.00;;
2994;SDS011;35277;49.890;8.222;2024-03-02T13:23:07;2.30;;;1.53;;
2994;SDS011;35277;49.890;8.222;2024-03-02T13:25:36;1.23;;;1.10;;
2994;SDS011;35277;49.890;8.222;2024-03-02T13:28:04;1.57;;;1.10;;
2994;SDS011;35277;49.890;8.222;2024-03-02T13:30:33;1.00;;;0.60;;
2994;SDS011;35277;49.890;8.222;2024-03-02T13:33:01;1.63;;;1.17;;
2994;SDS011;35277;49.890;8.222;2024-03-02T13:35:29;1.10;;;0.67;;
2994;SDS011;35277;49.890;8.222;2024-03-02T13:37:56;1.53;;;1.33;;
2994;SDS011;35277;49.890;8.222;2024-03-02T13:40:26;1.43;;;1.33;;
2994;SDS011;35277;49.890;8.222;2024-03-02T13:42:54;1.13;;;1.00;;
2994;SDS011;35277;49.890;8.222;2024-03-02T13:45:22;0.97;;;0.50;;
2994;SDS011;35277;49.890;8.222;2024-03-02T13:47:50;1.20;;;0.70;;
2994;SDS011;35277;49.890;8.222;2024-03-02T13:50:18;1.50;;;1.20;;
2994;SDS011;35277;49.890;8.222;2024-03-02T13:52:46;1.00;;;0.60;;
2994;SDS011;35277;49.890;8.222;2024-03-02T13:55:14;2.30;;;0.60;;
2994;SDS011;35277;49.890;8.222;2024-03-02T13:57:44;1.00;;;0.43;;
2994;SDS011;35277;49.890;8.222;2024-03-02T14:00:14;2.70;;;0.70;;
2994;SDS011;35277;49.890;8.222;2024-03-02T14:02:42;1.00;;;0.50;;
2994;SDS011;35277;49.890;8.222;2024-03-02T14:05:10;2.70;;;0.90;;
2994;SDS011;35277;49.890;8.222;2024-03-02T14:07:38;1.10;;;0.60;;
2994;SDS011;35277;49.890;8.222;2024-03-02T14:10:06;1.20;;;1.03;;
2994;SDS011;35277;49.890;8.222;2024-03-02T14:12:34;2.10;;;0.90;;
2994;SDS011;35277;49.890;8.222;2024-03-02T14:15:05;0.90;;;0.40;;
2994;SDS011;35277;49.890;8.222;2024-03-02T14:17:34;1.20;;;0.50;;
2994;SDS011;35277;49.890;8.222;2024-03-02T14:20:02;1.73;;;0.60;;
2994;SDS011;35277;49.890;8.222;2024-03-02T14:22:31;2.30;;;1.63;;
2994;SDS011;35277;49.890;8.222;2024-03-02T14:25:00;0.90;;;0.40;;
2994;SDS011;35277;49.890;8.222;2024-03-02T14:27:28;1.00;;;0.60;;
2994;SDS011;35277;49.890;8.222;2024-03-02T14:30:17;1.00;;;0.50;;
2994;SDS011;35277;49.890;8.222;2024-03-02T14:32:44;0.97;;;0.40;;
2994;SDS011;35277;49.890;8.222;2024-03-02T14:35:12;1.00;;;0.50;;
2994;SDS011;35277;49.890;8.222;2024-03-02T14:37:41;1.00;;;0.60;;
2994;SDS011;35277;49.890;8.222;2024-03-02T14:40:10;3.20;;;2.20;;
2994;SDS011;35277;49.890;8.222;2024-03-02T14:42:39;1.47;;;0.93;;
2994;SDS011;35277;49.890;8.222;2024-03-02T14:45:08;1.00;;;0.50;;
2994;SDS011;35277;49.890;8.222;2024-03-02T14:47:38;0.97;;;0.50;;
2994;SDS011;35277;49.890;8.222;2024-03-02T14:50:06;0.97;;;0.40;;
2994;SDS011;35277;49.890;8.222;2024-03-02T14:52:35;1.00;;;0.40;;
2994;SDS011;35277;49.890;8.222;2024-03-02T14:55:04;2.03;;;1.23;;
2994;SDS011;35277;49.890;8.222;2024-03-02T14:57:34;0.90;;;0.40;;
2994;SDS011;35277;49.890;8.222;2024-03-02T15:00:02;1.00;;;0.40;;
2994;SDS011;35277;49.890;8.222;2024-03-02T15:02:33;1.00;;;0.40;;
2994;SDS011;35277;49.890;8.222;2024-03-02T15:05:03;1.00;;;0.50;;
2994;SDS011;35277;49.890;8.222;2024-03-02T15:07:31;1.60;;;1.43;;
2994;SDS011;35277;49.890;8.222;2024-03-02T15:09:59;1.00;;;0.50;;
2994;SDS011;35277;49.890;8.222;2024-03-02T15:12:27;0.97;;;0.50;;